San Carlos, CA

12:34 PM PST on February 25, 2017 (GMT -0800)
San Carlos | | Change Station

Elev 3 ft 37.51 °N, 122.25 °W | Updated 47 minutes ago

Partly Cloudy
Partly Cloudy
52 °F
Feels Like 52 °F
N
6
Wind Variable Wind from Variable

Today
High -- | Low -- °F
--% Chance of Precip.
Yesterday
High -- | Low -- °F
Precip. -- in
Pressure 30.15 in
Visibility 10.0 miles
Clouds Scattered Clouds 5000 ft
Scattered Clouds 18000 ft
Dew Point 37 °F
Humidity 58%
Rainfall 0.03 in
Snow Depth Not available.
6:45 AM 5:59 PM
Waning Crescent, 1% visible
METAR KSQL 251947Z VRB05KT 10SM SCT050 SCT180 11/03 A3015
Pressure 30.15 in
Visibility 10.0 miles
Clouds Scattered Clouds 5000 ft
Scattered Clouds 18000 ft
Dew Point 37 °F
Humidity 58%
Rainfall 0.03 in
Snow Depth Not available.
6:45 AM 5:59 PM
Waning Crescent, 1% visible
METAR KSQL 251947Z VRB05KT 10SM SCT050 SCT180 11/03 A3015

Get Your Daily Forecast Email!

Thanks for signing up!

Be on the lookout for a verification email in your inbox.

You'll start receiving the daily forecast at 8 AM.

×

10-Day Weather Forecast

Almanac

Astronomy

Feb. 25, 2017 Rise Set
Actual Time
Civil Twilight
Nautical Twilight
Astronomical Twilight
Moon
Length of Visible Light
Length of Day
Tomorrow will be .
, % of the Moon is Illuminated

Today's Extremes

State Highs State Lows

Community

WunderPhotos

Upload Photos

1,962,540 photos uploaded!

WunderBlog® & News

Nearby

Air Quality

  Air Quality AQ Index Pollutant
Not available.

Snow Depth

Station Depth Elevation

Earthquake Activity

City Distance Mag. Time & Date
Minimum magnitude displayed is 2.5.

Coastal Water Temperatures

Place Temperature

Stations

Nearby Weather Stations

Station Location Temp. Windchill Dew Point Humidity Wind Precip. Elev Updated Type
                   

Watches & Warnings

There are currently no watches in effect.